ELA weather

El Arenoso Airport
Guaymas, Sonora, Mexico

Public forecast

Using degrees Celsius for public forecast. Weather courtesy of forecast.io.

Closest aviation weather report (METAR) to El Arenoso Airport

Report is more than 6 hours old.

Closest report is General José María Yáñez International Airport, 23.3 nm (43.2 km) SW. Retrieved 2020/07/13 01:41 UTC (9 hours ago):

MMGM 130141Z 20012KT 10SM BKN060 BKN200 30/24 A2967 RMK 8/401

Closest aviation forecast (TAF) to El Arenoso Airport

Closest forecast is General José María Yáñez International Airport, 23.3 nm (43.2 km) SW. Retrieved 2020/07/13 06:59 UTC (3 hours ago):

TAF MMGM 130452Z 1306/1406 20010KT P6SM SCT200 FM131800 20015KT P6SM BKN140 BECMG 1400/1401 20006KT